Time;durP1;ratioP1;P1;durP2;ratioP2;P2;SDS_P1;SDS_P2;PMS_P1;PMS_P2;Temp;Humidity;BMP_temperature;BMP_pressure;BME280_temperature;BME280_humidity;BME280_pressure;Samples;Min_cycle;Max_cycle;Signal;HPM_P1;HPM_P2
2022/02/01 00:03:16;;;;;;;3.45;2.20;;;;;;;;;;4994738;28;20061;-78
2022/02/01 00:05:59;;;;;;;4.75;2.50;;;;;;;;;;4990092;28;20034;-78
2022/02/01 00:08:36;;;;;;;4.60;2.33;;;;;;;;;;4990034;28;20488;-77
2022/02/01 00:13:48;;;;;;;3.55;2.42;;;;;;;;;;4990284;28;20026;-78
2022/02/01 00:35:33;;;;;;;3.53;2.30;;;;;;;;;;4930059;29;20111;-77
2022/02/01 00:38:11;;;;;;;5.75;2.97;;;;;;;;;;4930290;29;20094;-77
2022/02/01 00:40:38;;;;;;;3.50;2.45;;;;;;;;;;4941248;29;20045;-77
2022/02/01 00:43:05;;;;;;;3.47;2.35;;;;;;;;;;4949141;28;20050;-76
2022/02/01 00:45:30;;;;;;;3.75;2.10;;;;;;;;;;4950564;29;20471;-77
2022/02/01 00:47:56;;;;;;;3.32;2.18;;;;;;;;;;4949987;29;20090;-77
2022/02/01 00:50:21;;;;;;;2.88;1.75;;;;;;;;;;4955383;29;20066;-77
2022/02/01 00:52:46;;;;;;;3.70;2.30;;;;;;;;;;4948484;29;20050;-77
2022/02/01 00:55:12;;;;;;;2.97;1.95;;;;;;;;;;4954142;28;20106;-76
2022/02/01 00:57:38;;;;;;;4.18;2.33;;;;;;;;;;5011042;28;20033;-76
2022/02/01 01:00:06;;;;;;;3.70;2.25;;;;;;;;;;5009715;28;20179;-77
2022/02/01 01:02:31;;;;;;;4.35;2.10;;;;;;;;;;5007711;28;20033;-76
2022/02/01 01:04:56;;;;;;;3.28;2.00;;;;;;;;;;5010209;28;20129;-78
2022/02/01 01:07:21;;;;;;;3.08;1.90;;;;;;;;;;5010203;28;20374;-77
2022/02/01 01:09:47;;;;;;;3.15;2.00;;;;;;;;;;5005363;28;20030;-78
2022/02/01 01:12:13;;;;;;;3.53;2.20;;;;;;;;;;5008025;28;20033;-78
2022/02/01 01:44:23;;;;;;;4.70;3.05;;;;;;;;;;5014000;28;20032;-78
2022/02/01 01:55:14;;;;;;;6.05;4.20;;;;;;;;;;4985815;28;20057;-78
2022/02/01 01:57:40;;;;;;;6.97;4.20;;;;;;;;;;4984812;28;20036;-77
2022/02/01 02:00:09;;;;;;;6.60;4.07;;;;;;;;;;4986124;28;20038;-79
2022/02/01 02:02:35;;;;;;;5.63;4.20;;;;;;;;;;4983360;28;20034;-78
2022/02/01 02:05:00;;;;;;;6.47;4.85;;;;;;;;;;4992677;28;20033;-77
2022/02/01 02:07:25;;;;;;;6.22;4.72;;;;;;;;;;4986400;28;20040;-76
2022/02/01 02:09:50;;;;;;;8.25;5.53;;;;;;;;;;4983574;28;20089;-77
2022/02/01 02:12:33;;;;;;;6.20;4.57;;;;;;;;;;4975286;28;20702;-77
2022/02/01 02:14:59;;;;;;;8.00;5.70;;;;;;;;;;4987041;28;20072;-77
2022/02/01 02:17:24;;;;;;;7.95;5.70;;;;;;;;;;4985774;28;20112;-77
2022/02/01 02:19:49;;;;;;;7.60;5.50;;;;;;;;;;4963401;28;20034;-77
2022/02/01 02:22:14;;;;;;;8.85;6.38;;;;;;;;;;4983512;28;20062;-76
2022/02/01 02:24:42;;;;;;;9.02;5.95;;;;;;;;;;4991950;28;20041;-77
2022/02/01 02:27:07;;;;;;;9.30;6.72;;;;;;;;;;5007634;28;20358;-78
2022/02/01 02:29:33;;;;;;;9.43;6.63;;;;;;;;;;5008661;28;20014;-76
2022/02/01 02:31:59;;;;;;;9.43;6.07;;;;;;;;;;5010779;28;20034;-77
2022/02/01 02:34:24;;;;;;;9.65;6.65;;;;;;;;;;5007875;28;20030;-78
2022/02/01 02:36:54;;;;;;;11.20;7.32;;;;;;;;;;5008624;28;20037;-76
2022/02/01 02:42:06;;;;;;;9.82;6.68;;;;;;;;;;5003118;28;20649;-77
2022/02/01 02:47:15;;;;;;;12.65;7.32;;;;;;;;;;5006301;28;20124;-77
2022/02/01 02:49:40;;;;;;;10.30;7.43;;;;;;;;;;5008078;28;20112;-77
2022/02/01 02:52:05;;;;;;;10.48;7.35;;;;;;;;;;5005916;28;20421;-77
2022/02/01 02:54:30;;;;;;;8.98;6.57;;;;;;;;;;5007769;28;20105;-77
2022/02/01 02:57:00;;;;;;;11.06;7.52;;;;;;;;;;5007342;28;20034;-77
2022/02/01 02:59:26;;;;;;;11.52;7.53;;;;;;;;;;5005153;28;20026;-77
2022/02/01 03:01:52;;;;;;;10.38;7.10;;;;;;;;;;5007356;28;20072;-77
2022/02/01 03:04:18;;;;;;;10.25;6.72;;;;;;;;;;5008139;28;20489;-77
2022/02/01 03:06:44;;;;;;;11.18;7.30;;;;;;;;;;5007109;28;20014;-76
2022/02/01 03:09:10;;;;;;;10.95;7.60;;;;;;;;;;5007298;28;20029;-78
2022/02/01 03:11:35;;;;;;;11.88;7.70;;;;;;;;;;5008032;28;20026;-77
2022/02/01 03:14:04;;;;;;;12.05;8.18;;;;;;;;;;5008024;28;20029;-77
2022/02/01 03:16:52;;;;;;;11.95;7.90;;;;;;;;;;5002530;28;20026;-77
2022/02/01 03:22:01;;;;;;;13.75;8.55;;;;;;;;;;5006398;28;20093;-78
2022/02/01 03:24:27;;;;;;;11.05;7.68;;;;;;;;;;5006245;28;20046;-76
2022/02/01 03:26:52;;;;;;;11.85;7.95;;;;;;;;;;5007590;28;20014;-76
2022/02/01 03:29:17;;;;;;;10.82;7.80;;;;;;;;;;5007403;28;20025;-78
2022/02/01 03:31:42;;;;;;;11.43;7.50;;;;;;;;;;5006643;28;20030;-77
2022/02/01 03:34:07;;;;;;;10.93;6.38;;;;;;;;;;5011492;28;20029;-77
2022/02/01 03:36:33;;;;;;;11.05;6.90;;;;;;;;;;5010950;28;20022;-78
2022/02/01 03:38:59;;;;;;;12.10;7.55;;;;;;;;;;5011796;28;20026;-78
2022/02/01 03:41:24;;;;;;;13.38;7.78;;;;;;;;;;5011684;28;20048;-77
2022/02/01 03:43:50;;;;;;;12.90;8.18;;;;;;;;;;5011814;28;20477;-77
2022/02/01 03:46:15;;;;;;;13.52;8.73;;;;;;;;;;5011388;28;20030;-77
2022/02/01 03:48:40;;;;;;;13.48;8.40;;;;;;;;;;5017050;28;20049;-77
2022/02/01 03:51:05;;;;;;;12.85;8.57;;;;;;;;;;5008678;28;20037;-77
2022/02/01 03:53:31;;;;;;;14.55;8.45;;;;;;;;;;5006080;28;20060;-77
2022/02/01 03:55:56;;;;;;;12.45;7.45;;;;;;;;;;5012024;28;20025;-76
2022/02/01 03:58:21;;;;;;;14.35;9.05;;;;;;;;;;5011837;28;20073;-77
2022/02/01 04:00:46;;;;;;;17.58;9.45;;;;;;;;;;5011898;28;20054;-76
2022/02/01 04:03:12;;;;;;;17.08;9.60;;;;;;;;;;5011486;28;20038;-78
2022/02/01 04:05:37;;;;;;;17.17;9.32;;;;;;;;;;5017527;28;20910;-77
2022/02/01 04:08:02;;;;;;;15.65;9.32;;;;;;;;;;5006936;28;20065;-79
2022/02/01 04:10:28;;;;;;;18.17;9.35;;;;;;;;;;5009422;28;20046;-77
2022/02/01 04:12:53;;;;;;;16.50;10.10;;;;;;;;;;5010933;28;20105;-78
2022/02/01 04:15:22;;;;;;;16.08;9.70;;;;;;;;;;5009114;28;20113;-77
2022/02/01 04:17:48;;;;;;;16.05;9.00;;;;;;;;;;5011513;28;20041;-77
2022/02/01 04:20:13;;;;;;;16.10;9.48;;;;;;;;;;5008028;28;20026;-76
2022/02/01 04:22:38;;;;;;;14.95;8.82;;;;;;;;;;5009855;28;20026;-77
2022/02/01 04:25:04;;;;;;;15.63;9.13;;;;;;;;;;5010231;28;20083;-77
2022/02/01 04:27:32;;;;;;;15.38;8.68;;;;;;;;;;5006098;28;20038;-78
2022/02/01 04:30:07;;;;;;;14.18;8.02;;;;;;;;;;5009557;28;20022;-77
2022/02/01 04:32:33;;;;;;;14.50;8.38;;;;;;;;;;5004886;28;20026;-79
2022/02/01 04:34:59;;;;;;;12.00;7.20;;;;;;;;;;5010488;28;20820;-77
2022/02/01 04:37:27;;;;;;;14.70;7.97;;;;;;;;;;5010954;28;20105;-77
2022/02/01 04:39:52;;;;;;;12.95;8.00;;;;;;;;;;5011643;28;20026;-78
2022/02/01 04:42:18;;;;;;;14.35;7.95;;;;;;;;;;5010524;28;20092;-78
2022/02/01 04:44:43;;;;;;;11.93;7.03;;;;;;;;;;5008337;28;20156;-78
2022/02/01 04:47:08;;;;;;;10.88;6.80;;;;;;;;;;5011390;28;20022;-77
2022/02/01 04:49:33;;;;;;;14.52;7.50;;;;;;;;;;5011448;28;20026;-78
2022/02/01 04:51:59;;;;;;;12.18;7.72;;;;;;;;;;5010887;28;20497;-79
2022/02/01 04:54:24;;;;;;;12.27;7.45;;;;;;;;;;5014269;28;20030;-77
2022/02/01 04:56:50;;;;;;;13.18;7.32;;;;;;;;;;5012267;28;20373;-77
2022/02/01 04:59:16;;;;;;;12.10;6.75;;;;;;;;;;5012318;28;20030;-78
2022/02/01 05:01:42;;;;;;;12.23;7.30;;;;;;;;;;5011360;28;20535;-77
2022/02/01 05:04:08;;;;;;;12.27;7.30;;;;;;;;;;5010606;28;20029;-78
2022/02/01 05:06:33;;;;;;;13.43;8.07;;;;;;;;;;5012608;28;20032;-78
2022/02/01 05:08:59;;;;;;;13.43;7.10;;;;;;;;;;5012140;28;20033;-76
2022/02/01 05:11:24;;;;;;;12.85;7.13;;;;;;;;;;5010752;28;20068;-76
2022/02/01 05:14:13;;;;;;;14.82;8.38;;;;;;;;;;5010844;28;20022;-79
2022/02/01 05:16:44;;;;;;;13.95;7.75;;;;;;;;;;5009756;28;20057;-78
2022/02/01 05:19:13;;;;;;;15.40;8.55;;;;;;;;;;5008512;28;20101;-76
2022/02/01 05:21:39;;;;;;;14.52;8.40;;;;;;;;;;5007670;28;20030;-76
2022/02/01 05:24:09;;;;;;;12.77;7.82;;;;;;;;;;5011410;28;20025;-76
2022/02/01 05:26:34;;;;;;;14.50;8.60;;;;;;;;;;5009717;28;20041;-75
2022/02/01 05:28:59;;;;;;;12.55;7.60;;;;;;;;;;5010303;28;20080;-76
2022/02/01 05:31:26;;;;;;;13.40;7.82;;;;;;;;;;5009921;28;20037;-73
2022/02/01 05:33:52;;;;;;;12.85;7.72;;;;;;;;;;5010453;28;20033;-74
2022/02/01 05:36:17;;;;;;;14.32;8.05;;;;;;;;;;5005938;28;20461;-74
2022/02/01 05:38:42;;;;;;;18.17;8.63;;;;;;;;;;5009415;28;20026;-73
2022/02/01 05:41:11;;;;;;;14.30;7.95;;;;;;;;;;5009868;28;20033;-74
2022/02/01 05:43:42;;;;;;;15.07;9.15;;;;;;;;;;5007257;28;20045;-75
2022/02/01 05:46:07;;;;;;;15.35;8.63;;;;;;;;;;5007289;28;20025;-74
2022/02/01 05:48:32;;;;;;;17.20;9.13;;;;;;;;;;5010007;28;20036;-74
2022/02/01 05:51:00;;;;;;;15.32;9.15;;;;;;;;;;5009364;28;20108;-73
2022/02/01 05:53:25;;;;;;;14.57;9.18;;;;;;;;;;5005982;28;20133;-74
2022/02/01 05:55:51;;;;;;;15.85;9.13;;;;;;;;;;5011533;28;20116;-76
2022/02/01 05:58:16;;;;;;;16.35;8.68;;;;;;;;;;5010321;28;20103;-75
2022/02/01 06:00:42;;;;;;;15.52;8.82;;;;;;;;;;5009636;28;20484;-75
2022/02/01 06:03:07;;;;;;;14.77;8.57;;;;;;;;;;5009921;28;20500;-73
2022/02/01 06:05:33;;;;;;;14.27;8.25;;;;;;;;;;5015265;28;20130;-77
2022/02/01 06:07:58;;;;;;;16.45;8.43;;;;;;;;;;5008013;28;20101;-75
2022/02/01 06:10:23;;;;;;;11.80;7.45;;;;;;;;;;5009089;28;20025;-75
2022/02/01 06:12:49;;;;;;;15.48;7.53;;;;;;;;;;5005871;28;20032;-78
2022/02/01 06:15:17;;;;;;;13.20;7.82;;;;;;;;;;5009470;28;20551;-77
2022/02/01 06:17:42;;;;;;;10.48;6.70;;;;;;;;;;5009872;28;20545;-76
2022/02/01 06:20:09;;;;;;;13.57;7.32;;;;;;;;;;5008558;28;20188;-78
2022/02/01 06:22:34;;;;;;;12.27;7.18;;;;;;;;;;5009622;28;20084;-76
2022/02/01 06:25:00;;;;;;;10.57;6.80;;;;;;;;;;5008468;28;20030;-75
2022/02/01 06:27:26;;;;;;;12.85;7.90;;;;;;;;;;5008408;28;20045;-77
2022/02/01 06:29:51;;;;;;;12.98;7.93;;;;;;;;;;5000269;28;20027;-77
2022/02/01 06:32:17;;;;;;;14.90;7.25;;;;;;;;;;5008968;28;20121;-76
2022/02/01 06:34:42;;;;;;;11.32;7.47;;;;;;;;;;5009645;28;20629;-76
2022/02/01 06:37:07;;;;;;;14.05;8.15;;;;;;;;;;5009303;28;20103;-75
2022/02/01 06:39:32;;;;;;;16.58;8.85;;;;;;;;;;5008980;28;20022;-75
2022/02/01 06:41:58;;;;;;;15.27;8.13;;;;;;;;;;5007568;28;20026;-75
2022/02/01 06:44:23;;;;;;;12.80;8.20;;;;;;;;;;5010010;28;20050;-75
2022/02/01 06:46:48;;;;;;;14.02;7.93;;;;;;;;;;5011241;28;20022;-77
2022/02/01 06:49:13;;;;;;;13.55;7.82;;;;;;;;;;5010719;28;20036;-76
2022/02/01 06:51:39;;;;;;;12.74;8.28;;;;;;;;;;5008621;28;20092;-76
2022/02/01 06:54:04;;;;;;;13.65;7.25;;;;;;;;;;5008955;28;20065;-76
2022/02/01 06:56:30;;;;;;;13.48;7.43;;;;;;;;;;5009600;28;20564;-77
2022/02/01 06:58:56;;;;;;;10.07;6.43;;;;;;;;;;5009910;28;20340;-76
2022/02/01 07:01:21;;;;;;;12.00;6.47;;;;;;;;;;5009774;28;20560;-76
2022/02/01 07:03:46;;;;;;;11.15;6.38;;;;;;;;;;5007584;28;20487;-76
2022/02/01 07:06:12;;;;;;;12.20;5.70;;;;;;;;;;5009162;28;20026;-76
2022/02/01 07:08:43;;;;;;;9.07;5.82;;;;;;;;;;5008499;28;20026;-76
2022/02/01 07:11:10;;;;;;;12.23;5.80;;;;;;;;;;5009929;28;20393;-77
2022/02/01 07:13:35;;;;;;;10.48;5.05;;;;;;;;;;5007804;28;20033;-75
2022/02/01 07:16:01;;;;;;;12.73;5.15;;;;;;;;;;5009432;28;20105;-77
2022/02/01 07:18:26;;;;;;;12.32;5.53;;;;;;;;;;5008707;28;20025;-76
2022/02/01 07:20:51;;;;;;;16.20;6.32;;;;;;;;;;5006059;28;20030;-77
2022/02/01 07:23:22;;;;;;;12.50;6.15;;;;;;;;;;5004646;28;20050;-75
2022/02/01 07:25:48;;;;;;;12.70;5.80;;;;;;;;;;5009421;28;20033;-82
2022/02/01 07:28:14;;;;;;;16.33;5.90;;;;;;;;;;5010284;28;20476;-81
2022/02/01 07:30:39;;;;;;;17.70;5.97;;;;;;;;;;5009477;28;20057;-79
2022/02/01 07:33:04;;;;;;;18.52;5.78;;;;;;;;;;5010824;28;20539;-80
2022/02/01 07:35:32;;;;;;;18.60;5.20;;;;;;;;;;5010911;28;20428;-81
2022/02/01 07:37:59;;;;;;;16.15;4.93;;;;;;;;;;5005447;28;20022;-81
2022/02/01 07:40:24;;;;;;;18.67;5.07;;;;;;;;;;5009690;28;20021;-80
2022/02/01 07:42:50;;;;;;;18.52;5.38;;;;;;;;;;5011844;28;20030;-80
2022/02/01 07:45:16;;;;;;;18.10;4.40;;;;;;;;;;5015891;28;20026;-81
2022/02/01 07:47:41;;;;;;;21.33;5.25;;;;;;;;;;5011088;28;20053;-80
2022/02/01 07:50:07;;;;;;;18.88;5.20;;;;;;;;;;5010942;28;20040;-80
2022/02/01 07:52:32;;;;;;;17.30;4.50;;;;;;;;;;5008146;28;20108;-79
2022/02/01 07:54:57;;;;;;;17.92;4.10;;;;;;;;;;5003708;28;20106;-79
2022/02/01 07:57:22;;;;;;;17.30;4.55;;;;;;;;;;5009573;28;20400;-79
2022/02/01 07:59:48;;;;;;;22.15;4.88;;;;;;;;;;5011275;28;20029;-80
2022/02/01 08:02:20;;;;;;;15.38;4.22;;;;;;;;;;5015486;28;20037;-79
2022/02/01 08:04:46;;;;;;;16.83;4.43;;;;;;;;;;5012994;28;20087;-79
2022/02/01 08:07:11;;;;;;;20.90;4.57;;;;;;;;;;5014261;28;20065;-81
2022/02/01 08:09:40;;;;;;;24.08;5.18;;;;;;;;;;5009288;28;20025;-81
2022/02/01 08:12:15;;;;;;;24.75;5.47;;;;;;;;;;5003497;28;20018;-80
2022/02/01 08:15:44;;;;;;;22.30;4.90;;;;;;;;;;5009488;28;20041;-81
2022/02/01 08:17:40;;;;;;;18.30;4.53;;;;;;;;;;5008941;28;20040;-79
2022/02/01 08:20:08;;;;;;;26.23;5.03;;;;;;;;;;5011114;28;20528;-80
2022/02/01 08:25:06;;;;;;;24.33;6.18;;;;;;;;;;5012644;28;20029;-80
2022/02/01 08:27:31;;;;;;;20.85;4.78;;;;;;;;;;5012855;28;20041;-80
2022/02/01 08:29:58;;;;;;;27.25;5.03;;;;;;;;;;5009852;28;20401;-81
2022/02/01 08:32:23;;;;;;;18.52;4.88;;;;;;;;;;5016185;28;20045;-79
2022/02/01 08:34:48;;;;;;;18.02;4.15;;;;;;;;;;5010803;28;20017;-80
2022/02/01 08:37:13;;;;;;;19.35;4.88;;;;;;;;;;5012787;28;20032;-80
2022/02/01 08:39:39;;;;;;;16.45;4.53;;;;;;;;;;5012760;28;20034;-80
2022/02/01 08:42:04;;;;;;;21.77;4.53;;;;;;;;;;5013266;28;20144;-80
2022/02/01 08:44:30;;;;;;;20.13;4.35;;;;;;;;;;5006661;28;20084;-81
2022/02/01 08:46:56;;;;;;;18.33;4.70;;;;;;;;;;5011010;28;20409;-80
2022/02/01 08:49:21;;;;;;;18.73;3.85;;;;;;;;;;5011040;28;20052;-82
2022/02/01 08:51:56;;;;;;;18.92;4.07;;;;;;;;;;5012812;28;20105;-80
2022/02/01 08:54:25;;;;;;;12.82;3.83;;;;;;;;;;5011272;28;20059;-80
2022/02/01 08:59:35;;;;;;;17.00;3.70;;;;;;;;;;5012842;28;20100;-80
2022/02/01 09:02:01;;;;;;;16.10;3.95;;;;;;;;;;5012663;28;20627;-80
2022/02/01 09:04:26;;;;;;;15.07;4.30;;;;;;;;;;5012644;28;20037;-83
2022/02/01 09:06:51;;;;;;;19.90;3.92;;;;;;;;;;5012787;28;20026;-81
2022/02/01 09:09:17;;;;;;;22.05;4.40;;;;;;;;;;5012654;28;20112;-80
2022/02/01 09:11:42;;;;;;;17.92;4.00;;;;;;;;;;5011155;28;20022;-79
2022/02/01 09:14:07;;;;;;;16.70;3.50;;;;;;;;;;5012616;28;20075;-80
2022/02/01 09:16:33;;;;;;;15.12;3.80;;;;;;;;;;5011618;28;20041;-80
2022/02/01 09:18:59;;;;;;;14.52;4.05;;;;;;;;;;5012343;28;20097;-80
2022/02/01 09:21:24;;;;;;;14.98;3.33;;;;;;;;;;5014230;28;20046;-82
2022/02/01 09:23:49;;;;;;;14.50;3.30;;;;;;;;;;5010750;28;20131;-80
2022/02/01 09:26:14;;;;;;;15.64;3.80;;;;;;;;;;5012120;28;20365;-79
2022/02/01 09:28:39;;;;;;;13.30;3.38;;;;;;;;;;5011463;28;20089;-80
2022/02/01 09:31:06;;;;;;;14.82;3.78;;;;;;;;;;5011498;28;20080;-81
2022/02/01 09:33:31;;;;;;;10.98;3.40;;;;;;;;;;5012127;28;20049;-80
2022/02/01 09:35:56;;;;;;;15.88;3.25;;;;;;;;;;5011059;28;20372;-80
2022/02/01 09:38:21;;;;;;;15.38;3.35;;;;;;;;;;5011886;28;20022;-79
2022/02/01 09:40:49;;;;;;;13.50;3.92;;;;;;;;;;5011710;28;20026;-80
2022/02/01 09:43:17;;;;;;;16.90;3.70;;;;;;;;;;5011571;28;20037;-80
2022/02/01 09:45:42;;;;;;;16.83;3.17;;;;;;;;;;5012336;28;20030;-80
2022/02/01 09:48:08;;;;;;;12.52;3.35;;;;;;;;;;5010769;28;20436;-82
2022/02/01 09:50:33;;;;;;;14.32;2.95;;;;;;;;;;5007732;28;20025;-80
2022/02/01 09:52:58;;;;;;;15.85;2.58;;;;;;;;;;5007446;28;20064;-78
2022/02/01 09:55:23;;;;;;;20.20;3.80;;;;;;;;;;5006792;28;20441;-78
2022/02/01 09:57:52;;;;;;;12.77;2.50;;;;;;;;;;5009890;28;20815;-79
2022/02/01 10:00:21;;;;;;;13.82;2.75;;;;;;;;;;5010897;28;20113;-78
2022/02/01 10:02:47;;;;;;;17.00;3.55;;;;;;;;;;5009816;28;20042;-80
2022/02/01 10:05:14;;;;;;;12.65;2.67;;;;;;;;;;5013260;28;20551;-79
2022/02/01 10:08:05;;;;;;;12.70;2.47;;;;;;;;;;5009031;28;20040;-78
2022/02/01 10:10:31;;;;;;;12.30;2.35;;;;;;;;;;5005969;28;20167;-80
2022/02/01 10:13:02;;;;;;;17.42;2.80;;;;;;;;;;5007373;28;20090;-81
2022/02/01 10:15:27;;;;;;;11.57;3.35;;;;;;;;;;5010279;28;20032;-79
2022/02/01 10:17:59;;;;;;;14.02;2.30;;;;;;;;;;5009665;28;20018;-80
2022/02/01 10:20:32;;;;;;;16.17;2.75;;;;;;;;;;5010897;28;20056;-81
2022/02/01 10:22:57;;;;;;;11.82;3.25;;;;;;;;;;5001515;28;20030;-78
2022/02/01 10:25:30;;;;;;;11.45;2.42;;;;;;;;;;5004337;28;20030;-79
2022/02/01 10:28:02;;;;;;;12.95;3.38;;;;;;;;;;5009542;28;20026;-80
2022/02/01 10:30:32;;;;;;;10.57;2.38;;;;;;;;;;5010022;28;20037;-80
2022/02/01 10:38:32;;;;;;;13.38;2.20;;;;;;;;;;4988160;28;20114;-81
2022/02/01 10:40:57;;;;;;;13.60;2.58;;;;;;;;;;4970681;28;20524;-79
2022/02/01 10:43:30;;;;;;;12.07;2.40;;;;;;;;;;4985551;28;20110;-82
2022/02/01 10:46:01;;;;;;;11.43;2.80;;;;;;;;;;4986100;28;20070;-81
2022/02/01 10:48:27;;;;;;;14.32;2.63;;;;;;;;;;4971832;28;20062;-80
2022/02/01 10:51:19;;;;;;;11.43;2.33;;;;;;;;;;4987429;28;20054;-82
2022/02/01 10:53:44;;;;;;;14.27;2.95;;;;;;;;;;4982643;28;20117;-81
2022/02/01 10:56:15;;;;;;;9.25;2.65;;;;;;;;;;4986962;28;20038;-83
2022/02/01 10:58:40;;;;;;;10.98;2.72;;;;;;;;;;4986543;28;20026;-81
2022/02/01 11:01:06;;;;;;;18.85;2.60;;;;;;;;;;4966849;28;20041;-80
2022/02/01 11:03:31;;;;;;;13.25;2.88;;;;;;;;;;4985821;28;20046;-82
2022/02/01 11:05:57;;;;;;;11.50;3.05;;;;;;;;;;4988805;28;20053;-81
2022/02/01 11:08:26;;;;;;;9.13;2.30;;;;;;;;;;4983003;28;20040;-81
2022/02/01 11:10:52;;;;;;;7.50;2.03;;;;;;;;;;4992170;28;20042;-80
2022/02/01 11:13:18;;;;;;;13.07;2.25;;;;;;;;;;4988614;28;20046;-81
2022/02/01 11:15:59;;;;;;;9.73;2.30;;;;;;;;;;5002527;28;20041;-80
2022/02/01 11:18:26;;;;;;;9.23;2.28;;;;;;;;;;5009961;28;20109;-80
2022/02/01 11:20:52;;;;;;;9.57;2.75;;;;;;;;;;5010337;28;20034;-80
2022/02/01 11:23:22;;;;;;;9.77;2.28;;;;;;;;;;5011182;28;20029;-78
2022/02/01 11:25:51;;;;;;;9.50;2.40;;;;;;;;;;5004661;28;20049;-80
2022/02/01 11:28:59;;;;;;;8.48;2.17;;;;;;;;;;4996066;28;20106;-79
2022/02/01 11:31:28;;;;;;;6.40;2.00;;;;;;;;;;5009114;28;20038;-81
2022/02/01 11:33:54;;;;;;;4.28;1.95;;;;;;;;;;5010742;28;20021;-81
2022/02/01 11:36:20;;;;;;;7.57;2.28;;;;;;;;;;5012220;28;20034;-79
2022/02/01 11:38:49;;;;;;;10.82;2.10;;;;;;;;;;5010031;28;20091;-78
2022/02/01 11:41:14;;;;;;;7.85;2.30;;;;;;;;;;5012359;28;20037;-79
2022/02/01 11:43:40;;;;;;;7.38;2.50;;;;;;;;;;5010910;28;20259;-80
2022/02/01 11:46:08;;;;;;;7.75;2.25;;;;;;;;;;5009717;28;20034;-78
2022/02/01 11:48:36;;;;;;;8.43;2.10;;;;;;;;;;5009127;28;20037;-79
2022/02/01 11:51:07;;;;;;;7.90;2.80;;;;;;;;;;5008243;28;20018;-78
2022/02/01 11:53:32;;;;;;;6.78;2.17;;;;;;;;;;5008903;28;20064;-80
2022/02/01 11:55:57;;;;;;;5.52;1.90;;;;;;;;;;5003640;28;20026;-80
2022/02/01 11:58:27;;;;;;;6.57;2.30;;;;;;;;;;5012012;28;20038;-79
2022/02/01 12:00:53;;;;;;;5.35;2.63;;;;;;;;;;5012103;28;20452;-78
2022/02/01 12:03:20;;;;;;;18.10;2.45;;;;;;;;;;5011848;28;20045;-78
2022/02/01 12:05:53;;;;;;;5.53;2.08;;;;;;;;;;5016649;28;20049;-77
2022/02/01 12:08:19;;;;;;;6.10;2.05;;;;;;;;;;5012801;28;20061;-78
2022/02/01 12:10:44;;;;;;;6.55;1.98;;;;;;;;;;5011080;28;20026;-78
2022/02/01 12:13:12;;;;;;;5.75;2.20;;;;;;;;;;5011651;28;20029;-77
2022/02/01 12:15:38;;;;;;;4.80;2.10;;;;;;;;;;5010228;28;20034;-79
2022/02/01 12:18:06;;;;;;;6.57;2.28;;;;;;;;;;5012031;28;20041;-77
2022/02/01 12:20:34;;;;;;;6.10;2.20;;;;;;;;;;5011111;28;20088;-77
2022/02/01 12:22:59;;;;;;;8.80;2.00;;;;;;;;;;5010985;28;20057;-78
2022/02/01 12:25:26;;;;;;;8.90;2.03;;;;;;;;;;5011767;28;20018;-78
2022/02/01 12:27:51;;;;;;;7.03;3.05;;;;;;;;;;5011510;28;20041;-78
2022/02/01 12:30:16;;;;;;;9.38;2.10;;;;;;;;;;5011192;28;20071;-77
2022/02/01 12:32:48;;;;;;;6.07;1.90;;;;;;;;;;5011356;28;20513;-78
2022/02/01 12:35:14;;;;;;;8.95;2.75;;;;;;;;;;5010894;28;20137;-78
2022/02/01 12:37:39;;;;;;;6.82;1.92;;;;;;;;;;5011263;28;20026;-77
2022/02/01 12:40:10;;;;;;;7.35;2.53;;;;;;;;;;5010785;28;20084;-77
2022/02/01 12:42:45;;;;;;;5.25;2.40;;;;;;;;;;5011314;28;20125;-79
2022/02/01 12:47:58;;;;;;;6.78;2.08;;;;;;;;;;5010409;28;20065;-77
2022/02/01 12:50:23;;;;;;;8.15;2.65;;;;;;;;;;5011476;28;20048;-77
2022/02/01 12:52:54;;;;;;;8.56;2.20;;;;;;;;;;5010255;28;20037;-79
2022/02/01 12:55:20;;;;;;;8.07;2.42;;;;;;;;;;5010333;28;20042;-78
2022/02/01 12:57:45;;;;;;;8.85;2.60;;;;;;;;;;5009029;28;20029;-78
2022/02/01 13:00:14;;;;;;;6.40;2.17;;;;;;;;;;5010232;28;20420;-78
2022/02/01 13:02:40;;;;;;;6.25;2.10;;;;;;;;;;5010626;28;20114;-79
2022/02/01 13:05:06;;;;;;;7.80;2.45;;;;;;;;;;5009505;28;20125;-78
2022/02/01 13:08:00;;;;;;;7.15;2.47;;;;;;;;;;5010262;28;20429;-77
2022/02/01 13:14:21;;;;;;;9.40;2.40;;;;;;;;;;5006304;28;20052;-78
2022/02/01 13:16:22;;;;;;;9.85;2.67;;;;;;;;;;5007201;28;20092;-78
2022/02/01 13:21:24;;;;;;;12.02;2.88;;;;;;;;;;5009849;28;20033;-80
2022/02/01 13:23:50;;;;;;;6.53;2.83;;;;;;;;;;5003654;28;20106;-78
2022/02/01 13:26:34;;;;;;;6.43;2.10;;;;;;;;;;5004893;28;20163;-78
2022/02/01 13:28:59;;;;;;;5.80;2.00;;;;;;;;;;5003984;28;20022;-77
2022/02/01 13:31:28;;;;;;;7.20;2.35;;;;;;;;;;5009708;28;20022;-77
2022/02/01 13:33:57;;;;;;;5.18;2.25;;;;;;;;;;4998454;28;20022;-77
2022/02/01 13:36:22;;;;;;;5.18;1.98;;;;;;;;;;5001105;28;20533;-78
2022/02/01 13:38:52;;;;;;;7.57;1.88;;;;;;;;;;5011269;28;20030;-78
2022/02/01 13:41:17;;;;;;;8.25;2.22;;;;;;;;;;5011145;28;20042;-78
2022/02/01 13:44:01;;;;;;;6.15;2.10;;;;;;;;;;5005083;28;20064;-80
2022/02/01 13:46:30;;;;;;;7.80;2.05;;;;;;;;;;5010475;28;20021;-78
2022/02/01 13:49:09;;;;;;;6.97;1.80;;;;;;;;;;5007529;28;20052;-78
2022/02/01 13:51:48;;;;;;;5.80;2.15;;;;;;;;;;5004826;28;20025;-78
2022/02/01 13:54:14;;;;;;;6.32;1.80;;;;;;;;;;5006317;28;20179;-78
2022/02/01 13:56:47;;;;;;;9.00;1.90;;;;;;;;;;5006430;28;20033;-79
2022/02/01 13:59:15;;;;;;;5.43;1.63;;;;;;;;;;5006783;28;20065;-78
2022/02/01 14:01:42;;;;;;;7.07;1.92;;;;;;;;;;5009789;28;20029;-78
2022/02/01 14:04:08;;;;;;;7.95;1.73;;;;;;;;;;5008464;28;20037;-78
2022/02/01 14:12:08;;;;;;;5.00;1.75;;;;;;;;;;5009830;28;20485;-78
2022/02/01 14:22:48;;;;;;;6.38;2.05;;;;;;;;;;5014874;28;20075;-77
2022/02/01 14:25:39;;;;;;;4.82;1.95;;;;;;;;;;5009546;28;20040;-77
2022/02/01 14:28:13;;;;;;;6.28;1.67;;;;;;;;;;5013825;28;20029;-77
2022/02/01 14:33:33;;;;;;;6.88;1.70;;;;;;;;;;5016548;28;20088;-80
2022/02/01 14:35:58;;;;;;;4.15;1.33;;;;;;;;;;5024904;28;20037;-78
2022/02/01 14:44:03;;;;;;;7.70;1.83;;;;;;;;;;5033601;28;20060;-80
2022/02/01 14:46:25;;;;;;;4.82;1.63;;;;;;;;;;5032686;28;20042;-79
2022/02/01 14:48:50;;;;;;;2.83;1.35;;;;;;;;;;5034176;28;20068;-79
2022/02/01 14:51:15;;;;;;;4.32;1.67;;;;;;;;;;5031234;28;20030;-78
2022/02/01 14:53:40;;;;;;;5.16;1.22;;;;;;;;;;5009100;28;20050;-78
2022/02/01 14:56:12;;;;;;;7.20;1.50;;;;;;;;;;5008305;28;20397;-78
2022/02/01 15:12:13;;;;;;;3.78;1.20;;;;;;;;;;5009488;28;20049;-79
2022/02/01 15:14:39;;;;;;;2.80;1.17;;;;;;;;;;5006231;28;20036;-78
2022/02/01 15:17:04;;;;;;;6.93;1.33;;;;;;;;;;5009093;28;20018;-78
2022/02/01 15:19:30;;;;;;;6.25;1.00;;;;;;;;;;5011990;28;20116;-79
2022/02/01 15:21:55;;;;;;;4.72;1.13;;;;;;;;;;5008629;28;20032;-80
2022/02/01 15:24:20;;;;;;;4.53;0.98;;;;;;;;;;5007559;28;20045;-80
2022/02/01 15:26:45;;;;;;;3.35;1.10;;;;;;;;;;5009009;28;20079;-79
2022/02/01 15:29:10;;;;;;;4.55;1.27;;;;;;;;;;5013083;28;20032;-79
2022/02/01 15:31:35;;;;;;;2.88;0.90;;;;;;;;;;5015815;28;20376;-78
2022/02/01 15:34:01;;;;;;;3.47;1.15;;;;;;;;;;5015815;28;20120;-79
2022/02/01 15:36:31;;;;;;;3.40;1.10;;;;;;;;;;5016620;28;20056;-79
2022/02/01 15:58:07;;;;;;;2.40;1.20;;;;;;;;;;4993110;28;20041;-81
2022/02/01 16:00:35;;;;;;;4.33;1.60;;;;;;;;;;4994776;28;20038;-81
2022/02/01 16:03:07;;;;;;;3.15;1.17;;;;;;;;;;4993499;28;20050;-82
2022/02/01 16:05:32;;;;;;;3.95;1.20;;;;;;;;;;4994816;28;20049;-80
2022/02/01 16:07:58;;;;;;;3.60;1.02;;;;;;;;;;4997142;28;20030;-81
2022/02/01 16:13:21;;;;;;;5.28;1.15;;;;;;;;;;4937280;29;20036;-81
2022/02/01 16:15:47;;;;;;;7.40;1.00;;;;;;;;;;4934872;29;20082;-79
2022/02/01 16:18:13;;;;;;;2.60;1.08;;;;;;;;;;4939598;29;20207;-82
2022/02/01 16:20:38;;;;;;;2.80;1.20;;;;;;;;;;4935894;29;20807;-77
2022/02/01 16:23:06;;;;;;;2.75;1.10;;;;;;;;;;4932817;29;20054;-81
2022/02/01 16:25:32;;;;;;;2.92;1.00;;;;;;;;;;4935845;29;20558;-81
2022/02/01 16:27:57;;;;;;;3.22;0.77;;;;;;;;;;4936133;29;20028;-81
2022/02/01 16:30:27;;;;;;;2.85;1.25;;;;;;;;;;4941337;29;20028;-80
2022/02/01 16:32:52;;;;;;;2.47;0.90;;;;;;;;;;4937385;28;20031;-80
2022/02/01 16:35:18;;;;;;;3.60;0.80;;;;;;;;;;4921672;29;20412;-81
2022/02/01 16:37:46;;;;;;;1.38;0.80;;;;;;;;;;4920193;29;20039;-81
2022/02/01 16:40:12;;;;;;;4.75;0.95;;;;;;;;;;4913998;29;20119;-79
2022/02/01 16:42:41;;;;;;;1.42;0.75;;;;;;;;;;4913492;29;20119;-82
2022/02/01 16:45:08;;;;;;;3.28;0.98;;;;;;;;;;4912497;29;20046;-79
2022/02/01 16:47:35;;;;;;;1.83;0.60;;;;;;;;;;4912501;29;20035;-79
2022/02/01 16:50:01;;;;;;;3.40;0.70;;;;;;;;;;4938792;28;20053;-77
2022/02/01 16:52:30;;;;;;;2.70;0.60;;;;;;;;;;5011700;28;20073;-80
2022/02/01 16:55:08;;;;;;;1.42;0.60;;;;;;;;;;5012128;28;20400;-80
2022/02/01 16:57:44;;;;;;;1.48;0.70;;;;;;;;;;5011752;28;20483;-79
2022/02/01 17:00:13;;;;;;;1.98;0.60;;;;;;;;;;5006403;28;20088;-79
2022/02/01 17:02:38;;;;;;;1.98;0.60;;;;;;;;;;5006043;28;20035;-81
2022/02/01 17:05:04;;;;;;;1.75;0.50;;;;;;;;;;5006717;28;20033;-78